Time;durP1;ratioP1;P1;durP2;ratioP2;P2;SDS_P1;SDS_P2;PMS_P1;PMS_P2;Temp;Humidity;BMP_temperature;BMP_pressure;BME280_temperature;BME280_humidity;BME280_pressure;Samples;Min_cycle;Max_cycle;Signal;HPM_P1;HPM_P2
2022/09/05 00:00:21;;;;;;;6.70;5.32;;;;;;;15.47;92.09;100467.09;4971257;28;20273;-81
2022/09/05 00:03:15;;;;;;;6.60;5.45;;;;;;;15.54;91.96;100474.63;4973617;28;20058;-81
2022/09/05 00:06:09;;;;;;;9.05;5.32;;;;;;;15.53;91.82;100486.91;5029646;28;20045;-81
2022/09/05 00:09:13;;;;;;;9.15;5.97;;;;;;;15.55;91.94;100482.44;5029679;28;20022;-81
2022/09/05 00:11:41;;;;;;;7.55;6.22;;;;;;;15.56;91.92;100486.75;5049501;28;20045;-81
2022/09/05 00:14:44;;;;;;;8.27;5.78;;;;;;;15.62;91.42;100482.94;5049642;28;20122;-81
2022/09/05 00:17:21;;;;;;;7.43;6.32;;;;;;;15.68;90.97;100496.63;4983049;28;20528;-80
2022/09/05 00:20:04;;;;;;;12.07;6.45;;;;;;;15.74;90.45;100487.56;5009623;28;20038;-81
2022/09/05 00:22:45;;;;;;;7.30;6.35;;;;;;;15.78;89.93;100481.19;5009643;28;20147;-81
2022/09/05 00:25:10;;;;;;;7.75;6.40;;;;;;;15.82;89.71;100484.50;5010072;28;20025;-81
2022/09/05 00:27:44;;;;;;;8.13;6.53;;;;;;;15.83;89.48;100484.41;5009702;28;20368;-81
2022/09/05 00:30:16;;;;;;;7.63;6.13;;;;;;;15.84;89.38;100482.63;5009850;28;20022;-81
2022/09/05 00:33:00;;;;;;;8.05;7.25;;;;;;;15.86;89.24;100491.28;5009588;28;20041;-81
2022/09/05 00:35:34;;;;;;;7.03;6.35;;;;;;;15.83;89.15;100486.19;5009839;28;20371;-80
2022/09/05 00:38:12;;;;;;;8.07;6.43;;;;;;;15.76;89.41;100476.94;5009758;28;20026;-80
2022/09/05 00:40:46;;;;;;;10.38;6.88;;;;;;;15.71;89.44;100471.97;5009420;28;20041;-80
2022/09/05 00:43:23;;;;;;;8.35;6.40;;;;;;;15.74;89.70;100487.56;4993160;28;20042;-81
2022/09/05 00:46:00;;;;;;;8.95;6.43;;;;;;;15.74;89.73;100490.19;5009363;28;20037;-81
2022/09/05 00:48:35;;;;;;;7.32;6.60;;;;;;;15.73;89.63;100487.66;5029185;28;20509;-80
2022/09/05 00:51:06;;;;;;;8.00;6.20;;;;;;;15.68;89.76;100469.53;5029304;28;20063;-80
2022/09/05 00:53:50;;;;;;;8.57;6.53;;;;;;;15.64;89.88;100462.72;5085354;28;20041;-80
2022/09/05 00:56:18;;;;;;;9.68;6.60;;;;;;;15.67;90.27;100486.19;5095919;28;20400;-80
2022/09/05 00:59:21;;;;;;;7.10;6.40;;;;;;;15.64;90.52;100486.34;5095701;28;20077;-80
2022/09/05 01:01:57;;;;;;;8.45;6.95;;;;;;;15.57;90.45;100470.06;5095707;28;20023;-81
2022/09/05 01:04:42;;;;;;;8.38;6.60;;;;;;;15.58;90.49;100481.41;5095951;28;20480;-81
2022/09/05 01:07:42;;;;;;;7.53;6.70;;;;;;;15.57;90.68;100477.09;5095845;28;20024;-81
2022/09/05 01:10:41;;;;;;;9.43;6.97;;;;;;;15.55;90.47;100473.69;5053086;28;20454;-80
2022/09/05 01:13:31;;;;;;;8.45;7.57;;;;;;;15.54;90.74;100485.13;5052966;28;20032;-81
2022/09/05 01:16:12;;;;;;;8.00;6.77;;;;;;;15.51;90.84;100488.78;5052923;28;20075;-80
2022/09/05 01:18:49;;;;;;;9.80;7.43;;;;;;;15.46;90.85;100475.91;5052658;28;20032;-81
2022/09/05 01:21:43;;;;;;;9.93;7.25;;;;;;;15.48;90.50;100483.69;5052826;28;20066;-80
2022/09/05 01:24:46;;;;;;;9.60;8.48;;;;;;;15.44;90.51;100487.41;5052705;28;20021;-81
2022/09/05 01:27:31;;;;;;;7.80;6.93;;;;;;;15.35;90.53;100480.88;5052753;28;20037;-81
2022/09/05 01:30:10;;;;;;;12.00;6.85;;;;;;;15.36;90.55;100482.56;5052809;28;20031;-81
2022/09/05 01:32:51;;;;;;;7.67;6.97;;;;;;;15.37;90.67;100488.66;5052556;28;20048;-80
2022/09/05 01:35:29;;;;;;;11.27;7.25;;;;;;;15.35;90.93;100490.53;5052628;28;20033;-81
2022/09/05 01:38:05;;;;;;;12.48;7.72;;;;;;;15.29;90.60;100480.31;5052269;28;20025;-81
2022/09/05 01:40:49;;;;;;;7.72;7.03;;;;;;;15.36;90.82;100479.94;5052298;28;20071;-80
2022/09/05 01:43:36;;;;;;;10.75;7.70;;;;;;;15.36;90.54;100486.97;5052529;28;20035;-80
2022/09/05 01:46:17;;;;;;;10.85;8.02;;;;;;;15.32;90.53;100481.03;5053629;28;20071;-80
2022/09/05 01:48:56;;;;;;;9.23;7.18;;;;;;;15.34;90.51;100489.69;5094942;28;20484;-81
2022/09/05 01:51:31;;;;;;;7.97;7.18;;;;;;;15.35;90.46;100495.78;5094929;28;20016;-81
2022/09/05 01:54:11;;;;;;;9.35;7.97;;;;;;;15.33;90.48;100489.75;5095066;28;20028;-80
2022/09/05 01:56:39;;;;;;;8.98;7.28;;;;;;;15.30;90.32;100493.41;5094453;28;20107;-80
2022/09/05 01:59:13;;;;;;;7.97;7.18;;;;;;;15.30;90.23;100487.31;5094940;28;20028;-81
2022/09/05 02:02:10;;;;;;;8.13;7.28;;;;;;;15.28;90.46;100492.59;5094785;28;20401;-81
2022/09/05 02:05:05;;;;;;;11.30;7.53;;;;;;;15.27;90.46;100488.28;5094325;28;20036;-81
2022/09/05 02:07:52;;;;;;;8.10;7.30;;;;;;;15.26;90.34;100491.84;5094724;28;20020;-80
2022/09/05 02:10:53;;;;;;;7.90;6.93;;;;;;;15.27;89.97;100493.53;5094848;28;20024;-80
2022/09/05 02:13:26;;;;;;;;;;;;;;;15.25;90.13;100492.75;5052361;28;20059;-80
2022/09/05 02:15:58;;;;;;;7.97;7.22;;;;;;;15.22;90.31;100496.41;5051623;28;20372;-80
2022/09/05 02:18:36;;;;;;;17.17;7.63;;;;;;;15.16;90.06;100488.00;5051618;28;20037;-81
2022/09/05 02:21:10;;;;;;;9.68;7.03;;;;;;;15.20;90.16;100494.78;5051794;28;20417;-80
2022/09/05 02:23:49;;;;;;;9.90;6.53;;;;;;;15.21;89.92;100499.09;5051461;28;20408;-81
2022/09/05 02:26:23;;;;;;;13.57;7.50;;;;;;;15.20;89.84;100494.78;5051757;28;20024;-81
2022/09/05 02:29:11;;;;;;;8.13;7.32;;;;;;;15.19;89.94;100493.09;5051353;28;20111;-81
2022/09/05 02:31:46;;;;;;;9.15;7.00;;;;;;;15.20;89.84;100502.66;5051411;28;20033;-81
2022/09/05 02:34:21;;;;;;;8.45;7.50;;;;;;;15.13;90.19;100493.44;5051473;28;20417;-81
2022/09/05 02:37:04;;;;;;;8.23;7.15;;;;;;;15.17;89.96;100502.84;5051153;28;20373;-81
2022/09/05 02:39:44;;;;;;;10.40;7.50;;;;;;;15.13;90.00;100498.69;5051394;28;20029;-81
2022/09/05 02:42:25;;;;;;;9.20;7.15;;;;;;;15.11;90.22;100509.22;5051389;28;20480;-81
2022/09/05 02:45:17;;;;;;;8.05;7.25;;;;;;;15.00;90.44;100493.22;5051101;28;20041;-81
2022/09/05 02:48:13;;;;;;;8.57;7.68;;;;;;;15.05;90.41;100498.22;5051061;28;20036;-81
2022/09/05 02:51:09;;;;;;;8.52;7.05;;;;;;;15.02;90.24;100501.00;5077880;28;20077;-80
2022/09/05 02:53:37;;;;;;;10.13;7.30;;;;;;;14.97;90.44;100506.47;5093901;28;20095;-80
2022/09/05 02:56:25;;;;;;;10.30;7.47;;;;;;;14.90;90.58;100489.34;5093652;28;20043;-80
2022/09/05 02:59:27;;;;;;;9.63;7.72;;;;;;;14.90;90.54;100489.34;5093512;28;20461;-81
2022/09/05 03:02:04;;;;;;;7.78;6.93;;;;;;;14.86;90.75;100493.06;5093480;28;20085;-80
2022/09/05 03:04:43;;;;;;;9.38;7.20;;;;;;;14.81;91.01;100489.81;5093522;28;20044;-80
2022/09/05 03:07:16;;;;;;;8.98;7.75;;;;;;;14.70;91.27;100483.31;5093660;28;20111;-80
2022/09/05 03:09:55;;;;;;;7.80;7.00;;;;;;;14.70;91.21;100493.81;5093327;28;20059;-80
2022/09/05 03:12:44;;;;;;;7.82;6.50;;;;;;;14.66;91.36;100500.16;5093443;28;20116;-81
2022/09/05 03:15:35;;;;;;;9.00;7.32;;;;;;;14.65;91.39;100494.97;5092696;28;20028;-80
2022/09/05 03:18:19;;;;;;;;;;;;;;;14.59;91.37;100501.41;5093717;28;20029;-80
2022/09/05 03:21:17;;;;;;;8.18;6.18;;;;;;;14.55;91.59;100497.22;5093041;28;19908;-80
2022/09/05 03:24:22;;;;;;;9.98;6.53;;;;;;;14.50;91.47;100511.50;5093158;28;20471;-81
2022/09/05 03:26:56;;;;;;;9.05;6.60;;;;;;;14.43;91.83;100509.13;5093049;28;20632;-80
2022/09/05 03:29:33;;;;;;;7.13;6.43;;;;;;;14.44;91.82;100516.06;5093029;28;20408;-80
2022/09/05 03:32:23;;;;;;;7.90;7.10;;;;;;;14.42;92.20;100520.53;5092961;28;20024;-80
2022/09/05 03:35:02;;;;;;;13.88;7.32;;;;;;;14.39;92.14;100523.28;5092896;28;20035;-80
2022/09/05 03:37:49;;;;;;;8.27;6.93;;;;;;;14.33;92.08;100512.28;5091537;28;20028;-80
2022/09/05 03:40:37;;;;;;;8.02;7.22;;;;;;;14.35;92.38;100523.53;5091815;28;20028;-80
2022/09/05 03:43:33;;;;;;;8.40;7.05;;;;;;;14.32;92.20;100519.25;5092695;28;20469;-80
2022/09/05 03:46:07;;;;;;;8.30;7.40;;;;;;;14.34;92.37;100529.69;5092533;28;20036;-80
2022/09/05 03:48:42;;;;;;;7.35;6.63;;;;;;;14.34;91.92;100541.03;5091642;28;20035;-80
2022/09/05 03:51:29;;;;;;;8.00;7.13;;;;;;;14.36;91.83;100528.69;5092817;28;20032;-80
2022/09/05 03:54:07;;;;;;;8.65;6.95;;;;;;;14.37;91.67;100526.94;5092471;28;20020;-80
2022/09/05 03:56:48;;;;;;;7.25;6.45;;;;;;;14.41;91.22;100533.69;5092422;28;20106;-80
2022/09/05 03:59:45;;;;;;;7.25;6.55;;;;;;;14.45;91.03;100540.50;5092588;28;20039;-80
2022/09/05 04:02:13;;;;;;;8.07;6.78;;;;;;;14.48;90.46;100533.38;5092577;28;20085;-80
2022/09/05 04:04:41;;;;;;;8.18;7.32;;;;;;;14.50;90.32;100533.31;5092591;28;20050;-81
2022/09/05 04:07:18;;;;;;;8.88;6.30;;;;;;;14.56;89.64;100538.25;5091437;28;20020;-80
2022/09/05 04:09:44;;;;;;;7.13;6.30;;;;;;;14.59;89.60;100545.97;5092367;28;20020;-81
2022/09/05 04:12:33;;;;;;;7.93;7.00;;;;;;;14.58;89.12;100536.41;5092500;28;20411;-81
2022/09/05 04:15:16;;;;;;;8.10;5.97;;;;;;;14.65;89.16;100544.81;5092227;28;20035;-80
2022/09/05 04:17:45;;;;;;;6.30;5.70;;;;;;;14.70;88.89;100542.78;5092285;28;20103;-80
2022/09/05 04:20:24;;;;;;;7.53;6.25;;;;;;;14.73;88.72;100540.03;5092483;28;20072;-80
2022/09/05 04:22:58;;;;;;;9.52;7.10;;;;;;;14.82;88.41;100546.59;5091929;28;20057;-80
2022/09/05 04:25:41;;;;;;;7.80;6.72;;;;;;;14.86;88.44;100553.38;5092331;28;20024;-80
2022/09/05 04:28:30;;;;;;;8.68;6.75;;;;;;;14.87;88.14;100540.19;5091713;28;20066;-81
2022/09/05 04:30:59;;;;;;;7.10;6.22;;;;;;;14.92;88.19;100539.97;5092018;28;20023;-80
2022/09/05 04:33:37;;;;;;;7.57;6.07;;;;;;;14.96;88.10;100550.22;5092140;28;20103;-81
2022/09/05 04:36:25;;;;;;;9.25;6.55;;;;;;;15.01;88.03;100555.25;5091845;28;20020;-81
2022/09/05 04:39:18;;;;;;;6.45;5.85;;;;;;;15.03;88.09;100552.53;5091931;28;20024;-81
2022/09/05 04:42:03;;;;;;;7.45;5.90;;;;;;;15.08;87.62;100558.38;5092155;28;20040;-81
2022/09/05 04:44:43;;;;;;;6.63;5.85;;;;;;;15.09;87.48;100555.72;5092263;28;20016;-80
2022/09/05 04:47:14;;;;;;;7.05;6.43;;;;;;;15.03;87.23;100552.53;5092226;28;20341;-80
2022/09/05 04:49:45;;;;;;;7.38;6.07;;;;;;;15.17;87.17;100561.41;5090702;28;20470;-80
2022/09/05 04:52:29;;;;;;;;;;;;;;;15.23;86.97;100566.34;5092452;28;20107;-80
2022/09/05 04:55:16;;;;;;;7.07;6.38;;;;;;;15.31;86.82;100559.84;5091509;28;20375;-81
2022/09/05 04:57:57;;;;;;;9.13;6.82;;;;;;;15.34;86.23;100557.94;5091946;28;20012;-81
2022/09/05 05:00:53;;;;;;;8.02;6.68;;;;;;;15.45;85.93;100566.06;5091846;28;20020;-81
2022/09/05 05:03:24;;;;;;;7.95;6.03;;;;;;;15.56;85.58;100555.03;5092139;28;20043;-81
2022/09/05 05:06:05;;;;;;;7.22;6.53;;;;;;;15.69;85.04;100563.97;5091547;28;20020;-81
2022/09/05 05:08:53;;;;;;;6.25;5.60;;;;;;;15.90;84.82;100564.59;5091735;28;20399;-81
2022/09/05 05:11:34;;;;;;;8.57;6.20;;;;;;;16.17;83.72;100571.91;5091375;28;20032;-81
2022/09/05 05:14:16;;;;;;;8.30;5.80;;;;;;;16.33;82.19;100564.84;5091590;28;20020;-81
2022/09/05 05:16:48;;;;;;;9.93;6.45;;;;;;;16.50;82.06;100569.16;5091652;28;20056;-81
2022/09/05 05:20:00;;;;;;;6.95;5.78;;;;;;;16.68;80.85;100580.41;5091693;28;20016;-81
2022/09/05 05:22:25;;;;;;;6.68;5.70;;;;;;;16.73;80.23;100569.66;5049048;28;20425;-81
2022/09/05 05:24:56;;;;;;;7.90;5.32;;;;;;;16.86;80.45;100574.16;5048814;28;20025;-81
2022/09/05 05:27:27;;;;;;;6.43;5.72;;;;;;;17.04;79.71;100569.59;5049022;28;20045;-81
2022/09/05 05:30:03;;;;;;;6.85;6.18;;;;;;;17.42;77.89;100575.22;5048670;28;20024;-81
2022/09/05 05:32:55;;;;;;;7.18;5.82;;;;;;;18.09;75.53;100569.38;5048885;28;20033;-81
2022/09/05 05:35:30;;;;;;;6.78;5.93;;;;;;;17.79;75.28;100562.47;4970223;28;20034;-81
2022/09/05 05:38:23;;;;;;;7.20;5.95;;;;;;;17.94;75.12;100579.09;4970012;28;20034;-81
2022/09/05 05:40:55;;;;;;;6.70;5.97;;;;;;;17.79;75.14;100564.25;4973617;28;20063;-81
2022/09/05 05:43:43;;;;;;;6.15;5.32;;;;;;;17.68;76.03;100581.53;4973764;28;20031;-81
2022/09/05 05:46:14;;;;;;;5.95;5.35;;;;;;;17.77;75.61;100577.50;4973420;28;20061;-81
2022/09/05 05:48:43;;;;;;;6.15;5.55;;;;;;;17.95;75.10;100579.03;4973869;28;20171;-81
2022/09/05 05:51:18;;;;;;;7.03;5.82;;;;;;;18.03;74.37;100589.06;4973390;28;20027;-81
2022/09/05 05:54:06;;;;;;;8.70;5.95;;;;;;;18.28;73.63;100596.25;5019600;28;20033;-81
2022/09/05 05:56:47;;;;;;;5.72;5.13;;;;;;;18.56;73.43;100589.22;5032223;28;20029;-81
2022/09/05 05:59:39;;;;;;;6.47;5.65;;;;;;;18.83;71.88;100598.00;5015538;28;20129;-81
2022/09/05 06:02:22;;;;;;;9.65;5.47;;;;;;;19.49;71.51;100598.84;5031998;28;20025;-81
2022/09/05 06:05:12;;;;;;;7.57;5.78;;;;;;;20.28;67.60;100599.53;5031781;28;20076;-81
2022/09/05 06:08:09;;;;;;;7.38;5.97;;;;;;;20.36;67.16;100602.47;5032100;28;20543;-81
2022/09/05 06:10:44;;;;;;;6.63;5.40;;;;;;;20.36;66.44;100599.84;5051934;28;20044;-81
2022/09/05 06:13:41;;;;;;;7.65;6.15;;;;;;;20.55;66.38;100599.34;5088309;28;20032;-82
2022/09/05 06:16:35;;;;;;;7.90;5.55;;;;;;;20.64;65.99;100596.88;5091963;28;20400;-81
2022/09/05 06:19:18;;;;;;;7.68;6.05;;;;;;;20.96;65.35;100604.25;5091914;28;20036;-81
2022/09/05 06:21:50;;;;;;;7.97;5.53;;;;;;;20.88;65.31;100603.97;5092187;28;20044;-81
2022/09/05 06:24:24;;;;;;;9.25;5.80;;;;;;;20.98;65.03;100606.75;5091952;28;20035;-81
2022/09/05 06:27:21;;;;;;;9.98;6.35;;;;;;;20.96;64.82;100608.69;5091553;28;20032;-81
2022/09/05 06:30:01;;;;;;;9.98;6.03;;;;;;;21.16;64.67;100621.28;5091502;28;20218;-81
2022/09/05 06:33:04;;;;;;;12.43;5.97;;;;;;;20.49;65.35;100615.69;5091808;28;20051;-81
2022/09/05 06:35:47;;;;;;;10.90;6.57;;;;;;;20.09;66.87;100606.13;5091783;28;20039;-81
2022/09/05 06:38:34;;;;;;;8.88;5.90;;;;;;;20.52;66.04;100607.50;5091366;28;20059;-81
2022/09/05 06:41:12;;;;;;;9.30;6.20;;;;;;;20.97;64.93;100613.88;5091277;28;20036;-81
2022/09/05 06:43:40;;;;;;;8.52;5.50;;;;;;;20.95;65.64;100612.31;5091667;28;20020;-81
2022/09/05 06:46:24;;;;;;;8.48;6.07;;;;;;;20.83;65.36;100616.72;5091444;28;20052;-81
2022/09/05 06:48:52;;;;;;;8.25;6.15;;;;;;;20.98;64.89;100615.56;5094086;28;20020;-82
2022/09/05 06:51:28;;;;;;;6.38;5.78;;;;;;;20.89;65.37;100617.09;5092748;28;20027;-81
2022/09/05 06:54:28;;;;;;;9.05;6.35;;;;;;;20.80;64.86;100617.78;5092299;28;20433;-81
2022/09/05 06:57:03;;;;;;;;;;;;;;;20.87;65.03;100615.53;5071163;28;20028;-81
2022/09/05 07:00:01;;;;;;;7.55;5.55;;;;;;;21.04;65.01;100620.41;5071100;28;20308;-82
2022/09/05 07:02:38;;;;;;;8.90;6.38;;;;;;;21.59;63.58;100621.53;5071040;28;20047;-81
2022/09/05 07:05:27;;;;;;;11.82;6.25;;;;;;;22.05;61.78;100606.50;5070497;28;20056;-82
2022/09/05 07:08:18;;;;;;;9.18;5.30;;;;;;;21.87;61.88;100625.56;5070540;28;20532;-82
2022/09/05 07:10:56;;;;;;;8.60;5.57;;;;;;;21.96;61.44;100639.06;5070542;28;20033;-81
2022/09/05 07:13:41;;;;;;;6.22;5.05;;;;;;;23.12;60.61;100642.94;5070776;28;20111;-82
2022/09/05 07:16:17;;;;;;;5.88;5.38;;;;;;;25.49;54.45;100632.63;5070410;28;20025;-82
2022/09/05 07:19:14;;;;;;;8.98;5.80;;;;;;;27.58;49.69;100637.97;5070609;28;20020;-82
2022/09/05 07:21:59;;;;;;;8.15;6.00;;;;;;;28.74;46.96;100635.66;5070572;28;20525;-82
2022/09/05 07:24:27;;;;;;;8.57;5.43;;;;;;;30.63;43.67;100634.25;5070585;28;20170;-82
2022/09/05 07:26:56;;;;;;;7.65;5.53;;;;;;;30.99;42.00;100639.91;5070270;28;20039;-82
2022/09/05 07:29:40;;;;;;;9.88;4.88;;;;;;;32.32;41.41;100644.63;5070726;28;20403;-82
2022/09/05 07:32:08;;;;;;;8.43;5.05;;;;;;;31.60;41.08;100639.06;5070192;28;20025;-80
2022/09/05 07:34:36;;;;;;;9.00;6.57;;;;;;;33.16;39.47;100646.78;5089806;28;20123;-80
2022/09/05 07:37:01;;;;;;;6.32;4.97;;;;;;;35.94;36.99;100655.78;5092586;28;20027;-80
2022/09/05 07:39:33;;;;;;;7.55;4.82;;;;;;;36.89;34.08;100652.44;5091866;28;20227;-80
2022/09/05 07:42:05;;;;;;;7.22;5.25;;;;;;;35.96;35.15;100656.44;5093082;28;20460;-80
2022/09/05 07:44:36;;;;;;;7.50;5.30;;;;;;;35.90;34.55;100651.00;5092812;28;20491;-80
2022/09/05 07:47:09;;;;;;;14.98;6.80;;;;;;;36.35;34.23;100646.47;5092586;28;20365;-80
2022/09/05 07:49:36;;;;;;;7.00;6.00;;;;;;;34.91;35.44;100651.88;5095306;28;20396;-80
2022/09/05 07:52:12;;;;;;;11.10;6.93;;;;;;;34.20;35.96;100653.09;5111361;27;20012;-80
2022/09/05 07:54:44;;;;;;;8.57;5.35;;;;;;;32.73;38.20;100650.28;5130649;27;20019;-80
2022/09/05 07:57:15;;;;;;;19.80;8.38;;;;;;;33.52;37.86;100641.28;5112690;28;20031;-80
2022/09/05 07:59:43;;;;;;;10.27;6.13;;;;;;;34.53;36.18;100640.78;5115150;27;20027;-81
2022/09/05 08:02:11;;;;;;;6.10;4.75;;;;;;;33.88;36.82;100660.00;5115020;27;20053;-81
2022/09/05 08:04:39;;;;;;;7.50;5.18;;;;;;;33.31;37.74;100649.41;5112694;28;20127;-81
2022/09/05 08:07:16;;;;;;;6.03;4.38;;;;;;;31.34;40.15;100659.16;5111392;28;20402;-81
2022/09/05 08:09:50;;;;;;;9.30;5.70;;;;;;;28.20;44.69;100634.31;5092060;28;20519;-81
2022/09/05 08:12:25;;;;;;;7.88;5.50;;;;;;;26.19;49.92;100640.28;5092065;28;20103;-80
2022/09/05 08:15:21;;;;;;;6.53;5.50;;;;;;;24.96;52.05;100651.75;5092481;28;20032;-80
2022/09/05 08:18:21;;;;;;;13.13;6.20;;;;;;;23.42;56.13;100647.50;5092163;28;20020;-80
2022/09/05 08:21:04;;;;;;;9.10;6.00;;;;;;;22.71;58.71;100646.31;5090957;28;20028;-80
2022/09/05 08:23:51;;;;;;;10.32;5.68;;;;;;;22.31;59.42;100646.91;5092492;28;20023;-80
2022/09/05 08:26:22;;;;;;;7.95;4.90;;;;;;;21.95;60.77;100646.16;5126688;27;20109;-80
2022/09/05 08:29:15;;;;;;;9.77;5.55;;;;;;;22.00;61.79;100664.38;5133050;27;20079;-80
2022/09/05 08:31:43;;;;;;;10.95;6.40;;;;;;;21.49;61.99;100657.69;5133012;27;20023;-80
2022/09/05 08:34:14;;;;;;;7.75;5.88;;;;;;;21.02;62.83;100646.16;5132814;27;20031;-80
2022/09/05 08:36:50;;;;;;;7.68;5.95;;;;;;;21.03;63.95;100639.06;5132874;27;20076;-80
2022/09/05 08:39:20;;;;;;;6.75;5.70;;;;;;;21.17;63.59;100639.72;5132766;27;20027;-80
2022/09/05 08:42:13;;;;;;;8.05;6.18;;;;;;;21.12;63.41;100639.22;5132780;27;20528;-80
2022/09/05 08:44:57;;;;;;;6.47;5.13;;;;;;;21.13;63.97;100632.13;5132858;27;20011;-80
2022/09/05 08:47:38;;;;;;;11.93;6.03;;;;;;;21.12;63.67;100633.91;5132909;27;20016;-79
2022/09/05 08:50:12;;;;;;;8.43;6.25;;;;;;;20.82;64.36;100625.63;5132608;27;20023;-80
2022/09/05 08:53:01;;;;;;;7.10;6.18;;;;;;;20.77;65.28;100631.22;5132968;27;20023;-80
2022/09/05 08:55:43;;;;;;;10.52;6.03;;;;;;;20.81;65.68;100618.63;5132801;27;20023;-80
2022/09/05 08:58:14;;;;;;;10.80;6.75;;;;;;;20.93;65.52;100617.69;5132436;27;20031;-80
2022/09/05 09:00:50;;;;;;;8.00;6.60;;;;;;;20.97;65.17;100602.44;5113010;27;20042;-80
2022/09/05 09:03:47;;;;;;;6.47;5.57;;;;;;;20.98;64.64;100615.56;5111955;28;20099;-80
2022/09/05 09:06:33;;;;;;;9.40;6.68;;;;;;;20.79;65.00;100599.34;5111986;28;20043;-80
2022/09/05 09:09:14;;;;;;;7.95;6.15;;;;;;;20.86;64.93;100597.97;5112188;28;20035;-80
2022/09/05 09:11:42;;;;;;;7.35;6.45;;;;;;;20.84;64.56;100600.69;5112264;28;20019;-80
2022/09/05 09:14:34;;;;;;;7.25;5.85;;;;;;;20.76;65.17;100611.00;5113735;28;20028;-80
2022/09/05 09:17:20;;;;;;;5.80;4.80;;;;;;;20.72;65.01;100606.06;5115860;28;20023;-80
2022/09/05 09:20:11;;;;;;;10.52;6.40;;;;;;;20.57;64.44;100600.09;5116224;28;20491;-80
2022/09/05 09:23:00;;;;;;;6.68;5.78;;;;;;;20.61;64.81;100596.28;5116035;28;20011;-80
2022/09/05 09:25:37;;;;;;;7.88;7.07;;;;;;;20.41;66.06;100587.94;5115889;28;20102;-80
2022/09/05 09:28:41;;;;;;;8.73;6.32;;;;;;;20.56;65.96;100598.38;5115755;28;20026;-80
2022/09/05 09:31:18;;;;;;;6.55;5.78;;;;;;;20.55;66.17;100589.63;5115747;28;20095;-80
2022/09/05 09:34:04;;;;;;;7.35;5.53;;;;;;;20.70;64.91;100592.94;5115906;28;20030;-80
2022/09/05 09:37:01;;;;;;;7.85;5.55;;;;;;;20.67;63.98;100604.59;5115557;28;20020;-80
2022/09/05 09:39:29;;;;;;;7.43;5.47;;;;;;;20.55;65.22;100596.72;5115616;28;20438;-80
2022/09/05 09:42:04;;;;;;;6.05;5.15;;;;;;;20.64;65.55;100599.53;5114378;28;20019;-80
2022/09/05 09:44:51;;;;;;;11.18;5.95;;;;;;;20.78;64.26;100600.31;5116057;28;20028;-80
2022/09/05 09:48:00;;;;;;;7.10;5.80;;;;;;;20.59;64.21;100593.72;5115352;28;20028;-80
2022/09/05 09:50:48;;;;;;;13.15;5.95;;;;;;;20.68;64.28;100603.63;5107049;28;20028;-80
2022/09/05 09:53:52;;;;;;;8.23;5.30;;;;;;;20.73;62.51;100595.38;5052315;28;20112;-80
2022/09/05 09:56:51;;;;;;;8.38;5.22;;;;;;;20.79;63.10;100600.19;5049961;28;20049;-80
2022/09/05 09:59:37;;;;;;;7.70;5.80;;;;;;;21.02;62.96;100598.47;5052053;28;20024;-80
2022/09/05 10:02:35;;;;;;;7.60;5.40;;;;;;;21.12;60.59;100596.00;5012181;28;20038;-80
2022/09/05 10:05:16;;;;;;;7.50;5.10;;;;;;;21.22;61.39;100594.31;5012178;28;20046;-80
2022/09/05 10:08:02;;;;;;;6.72;4.82;;;;;;;21.30;60.42;100584.00;5012399;28;20434;-80
2022/09/05 10:11:12;;;;;;;7.10;5.47;;;;;;;21.27;61.17;100596.63;5012315;28;20044;-80
2022/09/05 10:14:11;;;;;;;5.80;4.30;;;;;;;21.35;60.45;100591.63;5012616;28;20068;-80
2022/09/05 10:17:00;;;;;;;5.95;4.90;;;;;;;21.12;61.37;100599.47;5012282;28;20076;-80
2022/09/05 10:19:56;;;;;;;10.05;4.25;;;;;;;21.16;61.79;100586.84;4972741;28;20546;-80
2022/09/05 10:22:40;;;;;;;5.80;5.20;;;;;;;21.29;61.84;100594.72;4972877;28;20054;-80
2022/09/05 10:25:30;;;;;;;16.60;5.50;;;;;;;21.22;61.64;100577.59;4970592;28;20038;-80
2022/09/05 10:28:22;;;;;;;7.00;4.90;;;;;;;21.09;61.89;100578.53;4972765;28;20412;-80
2022/09/05 10:31:16;;;;;;;10.10;6.65;;;;;;;21.03;62.17;100588.75;4959231;28;20039;-80
2022/09/05 10:33:59;;;;;;;5.85;4.88;;;;;;;21.14;63.09;100583.47;4953540;29;20490;-80
2022/09/05 10:36:30;;;;;;;6.70;4.80;;;;;;;21.13;61.93;100582.63;4953320;29;20102;-80
2022/09/05 10:39:18;;;;;;;5.78;4.97;;;;;;;21.06;61.46;100575.25;4983686;28;20116;-80
2022/09/05 10:41:52;;;;;;;6.75;5.15;;;;;;;20.96;61.74;100571.63;5031546;28;20091;-80
2022/09/05 10:44:37;;;;;;;7.72;4.93;;;;;;;21.12;62.21;100582.75;5031134;28;20281;-80
2022/09/05 10:47:27;;;;;;;8.30;5.05;;;;;;;21.09;60.73;100570.56;5031414;28;20033;-80
2022/09/05 10:50:25;;;;;;;4.88;4.32;;;;;;;21.21;61.88;100571.44;5031386;28;20036;-80
2022/09/05 10:52:56;;;;;;;17.67;5.63;;;;;;;21.18;60.31;100571.69;4991970;28;20184;-80
2022/09/05 10:55:50;;;;;;;7.72;4.78;;;;;;;21.00;60.75;100547.44;4992927;28;20026;-80
2022/09/05 10:58:34;;;;;;;6.07;4.70;;;;;;;21.08;61.27;100566.25;5069618;28;20473;-80
2022/09/05 11:00:59;;;;;;;6.90;4.80;;;;;;;21.15;61.15;100554.22;5071046;28;20475;-80
2022/09/05 11:03:31;;;;;;;5.80;4.63;;;;;;;21.19;61.67;100544.22;5070513;28;20087;-80
2022/09/05 11:06:01;;;;;;;6.70;4.45;;;;;;;21.39;61.14;100545.38;5071073;28;20428;-80
2022/09/05 11:08:35;;;;;;;5.45;4.05;;;;;;;21.57;60.77;100545.72;5070771;28;20024;-80
2022/09/05 11:11:22;;;;;;;4.25;3.80;;;;;;;21.88;60.55;100549.47;5071390;28;20051;-80
2022/09/05 11:13:57;;;;;;;5.38;3.75;;;;;;;22.09;55.94;100560.19;5071016;28;20028;-80
2022/09/05 11:16:52;;;;;;;4.47;4.05;;;;;;;21.95;57.98;100563.06;5070456;28;20524;-80
2022/09/05 11:19:27;;;;;;;8.25;4.57;;;;;;;21.80;58.04;100557.19;5070415;28;20045;-80
2022/09/05 11:22:09;;;;;;;3.97;3.42;;;;;;;21.74;58.34;100545.25;5070663;28;20711;-80
2022/09/05 11:24:44;;;;;;;5.07;3.67;;;;;;;21.81;58.72;100527.91;5070559;28;20118;-80
2022/09/05 11:27:18;;;;;;;8.93;4.32;;;;;;;21.85;57.06;100549.72;5070346;28;20032;-80
2022/09/05 11:30:05;;;;;;;6.25;4.50;;;;;;;21.87;57.44;100540.69;5086600;28;20119;-80
2022/09/05 11:32:33;;;;;;;4.75;3.67;;;;;;;22.01;58.17;100550.19;5092856;28;20532;-80
2022/09/05 11:35:12;;;;;;;4.70;3.88;;;;;;;22.04;57.96;100552.59;5094187;28;20028;-82
2022/09/05 11:37:56;;;;;;;6.15;4.35;;;;;;;22.05;57.16;100541.00;5092548;28;20068;-82
2022/09/05 11:40:28;;;;;;;4.82;4.00;;;;;;;21.88;57.55;100538.88;5092812;28;20020;-82
2022/09/05 11:43:02;;;;;;;6.97;3.80;;;;;;;21.61;58.83;100536.56;5092901;28;20042;-82
2022/09/05 11:45:30;;;;;;;10.63;3.30;;;;;;;21.60;58.62;100538.38;5092928;28;20024;-82
2022/09/05 11:48:20;;;;;;;4.63;3.83;;;;;;;21.74;57.45;100537.28;5093102;28;20034;-82
2022/09/05 11:51:18;;;;;;;3.78;3.45;;;;;;;21.78;59.40;100533.44;5092899;28;20039;-82
2022/09/05 11:54:22;;;;;;;5.22;4.03;;;;;;;21.74;58.48;100533.81;5050162;28;20091;-82
2022/09/05 11:56:56;;;;;;;4.78;3.70;;;;;;;21.80;58.32;100528.03;5049514;28;20040;-82
2022/09/05 11:59:45;;;;;;;6.43;4.30;;;;;;;21.87;58.23;100519.47;5049845;28;20367;-82
2022/09/05 12:02:37;;;;;;;4.00;3.50;;;;;;;22.02;57.62;100535.09;5049804;28;20484;-82
2022/09/05 12:05:09;;;;;;;10.30;4.25;;;;;;;21.98;57.07;100537.16;5049739;28;20053;-82
2022/09/05 12:08:02;;;;;;;5.57;4.90;;;;;;;21.87;57.84;100534.53;5049591;28;20025;-82
2022/09/05 12:10:30;;;;;;;9.93;4.10;;;;;;;21.77;57.90;100534.41;5049506;28;20579;-82
2022/09/05 12:13:30;;;;;;;4.35;3.85;;;;;;;21.79;57.47;100537.78;5049766;28;20044;-82
2022/09/05 12:15:59;;;;;;;4.78;3.90;;;;;;;21.75;57.58;100524.91;5049763;28;20076;-82
2022/09/05 12:18:43;;;;;;;15.80;4.10;;;;;;;21.63;57.49;100527.56;5049357;28;20020;-82
2022/09/05 12:21:26;;;;;;;5.00;4.43;;;;;;;21.55;58.13;100514.06;5049662;28;20466;-82
2022/09/05 12:24:13;;;;;;;6.43;3.80;;;;;;;21.60;58.24;100521.63;5049558;28;20029;-82
2022/09/05 12:26:52;;;;;;;5.63;4.10;;;;;;;21.63;58.18;100521.41;5049646;28;20100;-82
2022/09/05 12:29:22;;;;;;;4.22;3.83;;;;;;;21.49;58.05;100522.50;5069626;28;20047;-82
2022/09/05 12:31:52;;;;;;;7.05;4.00;;;;;;;21.33;58.93;100506.94;5092308;28;20027;-82